
<gpx xmlns="http://www.topografix.com/GPX/1/1" xmlns:gpxx="http://www.garmin.com/xmlschemas/GpxExtensions/v3" xmlns:xsi="http://www.w3.org/2001/XMLSchema-instance" version="1.1" creator="Adze - http://kobotsw.com/apps/adze" xsi:schemaLocation="http://www.topografix.com/GPX/1/1 http://www.topografix.com/GPX/1/1/gpx.xsd http://www.garmin.com/xmlschemas/GpxExtensions/v3 http://www.garmin.com/xmlschemas/GpxExtensionsv3.xsd">
    <metadata>
        <name>Untitled Document</name>
        <link href="http://www.garmin.com"></link>
        <time>2018-02-26T03:48:48.904Z</time>
    </metadata>
    <wpt lon="99.682287" lat="12.902983">
        <ele>114.000000</ele>
        <time>2016-01-23T05:40:47Z</time>
        <name>KaengKrachanResort</name>
        <sym>Lodging</sym>
        <extensions>
            <gpxx:WaypointExtension xmlns:gpxx="http://www.garmin.com/xmlschemas/GpxExtensions/v3">
                <gpxx:DisplayMode>SymbolAndName</gpxx:DisplayMode>
            </gpxx:WaypointExtension>
        </extensions>
    </wpt>
    <wpt lon="99.649136" lat="12.906238">
        <ele>69.000000</ele>
        <time>2016-01-24T04:28:13Z</time>
        <name>Water Sunday</name>
        <sym>Drinking Water</sym>
        <extensions>
            <gpxx:WaypointExtension xmlns:gpxx="http://www.garmin.com/xmlschemas/GpxExtensions/v3">
                <gpxx:DisplayMode>SymbolAndName</gpxx:DisplayMode>
            </gpxx:WaypointExtension>
        </extensions>
    </wpt>
    <trk>
        <name>Sunday</name>
        <extensions>
            <gpxx:TrackExtension xmlns:gpxx="http://www.garmin.com/xmlschemas/GpxExtensions/v3">
                <gpxx:DisplayColor>Green</gpxx:DisplayColor>
            </gpxx:TrackExtension>
        </extensions>
        <trkseg>
            <trkpt lon="99.680725" lat="12.900059">
                <ele>110.690000</ele>
                <time>2016-01-24T03:07:39Z</time>
            </trkpt>
            <trkpt lon="99.677811" lat="12.899570">
                <ele>115.980000</ele>
                <time>2016-01-24T03:09:27Z</time>
            </trkpt>
            <trkpt lon="99.678032" lat="12.900218">
                <ele>124.150000</ele>
                <time>2016-01-24T03:10:09Z</time>
            </trkpt>
            <trkpt lon="99.678158" lat="12.900577">
                <ele>125.590000</ele>
                <time>2016-01-24T03:10:28Z</time>
            </trkpt>
            <trkpt lon="99.678367" lat="12.900872">
                <ele>126.550000</ele>
                <time>2016-01-24T03:10:43Z</time>
            </trkpt>
            <trkpt lon="99.678815" lat="12.900967">
                <ele>125.110000</ele>
                <time>2016-01-24T03:10:55Z</time>
            </trkpt>
            <trkpt lon="99.679246" lat="12.901407">
                <ele>126.070000</ele>
                <time>2016-01-24T03:11:09Z</time>
            </trkpt>
            <trkpt lon="99.679689" lat="12.901538">
                <ele>128.470000</ele>
                <time>2016-01-24T03:11:21Z</time>
            </trkpt>
            <trkpt lon="99.679732" lat="12.901534">
                <ele>128.470000</ele>
                <time>2016-01-24T03:11:22Z</time>
            </trkpt>
            <trkpt lon="99.680235" lat="12.901638">
                <ele>122.220000</ele>
                <time>2016-01-24T03:11:35Z</time>
            </trkpt>
            <trkpt lon="99.680330" lat="12.901969">
                <ele>118.860000</ele>
                <time>2016-01-24T03:11:44Z</time>
            </trkpt>
            <trkpt lon="99.680546" lat="12.902144">
                <ele>115.500000</ele>
                <time>2016-01-24T03:11:53Z</time>
            </trkpt>
            <trkpt lon="99.680900" lat="12.902153">
                <ele>112.610000</ele>
                <time>2016-01-24T03:12:00Z</time>
            </trkpt>
            <trkpt lon="99.681140" lat="12.902351">
                <ele>110.690000</ele>
                <time>2016-01-24T03:12:06Z</time>
            </trkpt>
            <trkpt lon="99.681420" lat="12.903424">
                <ele>106.840000</ele>
                <time>2016-01-24T03:12:31Z</time>
            </trkpt>
            <trkpt lon="99.681373" lat="12.904025">
                <ele>105.880000</ele>
                <time>2016-01-24T03:12:46Z</time>
            </trkpt>
            <trkpt lon="99.681546" lat="12.904307">
                <ele>108.770000</ele>
                <time>2016-01-24T03:12:56Z</time>
            </trkpt>
            <trkpt lon="99.681686" lat="12.904809">
                <ele>107.320000</ele>
                <time>2016-01-24T03:13:10Z</time>
            </trkpt>
            <trkpt lon="99.682166" lat="12.905298">
                <ele>105.880000</ele>
                <time>2016-01-24T03:13:28Z</time>
            </trkpt>
            <trkpt lon="99.682390" lat="12.905176">
                <ele>107.810000</ele>
                <time>2016-01-24T03:13:40Z</time>
            </trkpt>
            <trkpt lon="99.682748" lat="12.905312">
                <ele>110.210000</ele>
                <time>2016-01-24T03:13:52Z</time>
            </trkpt>
            <trkpt lon="99.682981" lat="12.905246">
                <ele>112.130000</ele>
                <time>2016-01-24T03:14:00Z</time>
            </trkpt>
            <trkpt lon="99.683339" lat="12.905608">
                <ele>111.170000</ele>
                <time>2016-01-24T03:14:14Z</time>
            </trkpt>
            <trkpt lon="99.683134" lat="12.906262">
                <ele>110.210000</ele>
                <time>2016-01-24T03:14:31Z</time>
            </trkpt>
            <trkpt lon="99.683259" lat="12.906643">
                <ele>109.250000</ele>
                <time>2016-01-24T03:14:41Z</time>
            </trkpt>
            <trkpt lon="99.683505" lat="12.906762">
                <ele>108.290000</ele>
                <time>2016-01-24T03:14:48Z</time>
            </trkpt>
            <trkpt lon="99.683479" lat="12.906860">
                <ele>108.770000</ele>
                <time>2016-01-24T03:14:51Z</time>
            </trkpt>
            <trkpt lon="99.683046" lat="12.907370">
                <ele>109.250000</ele>
                <time>2016-01-24T03:15:07Z</time>
            </trkpt>
            <trkpt lon="99.682159" lat="12.907738">
                <ele>118.860000</ele>
                <time>2016-01-24T03:15:40Z</time>
            </trkpt>
            <trkpt lon="99.681747" lat="12.908002">
                <ele>120.780000</ele>
                <time>2016-01-24T03:15:59Z</time>
            </trkpt>
            <trkpt lon="99.681215" lat="12.908744">
                <ele>121.740000</ele>
                <time>2016-01-24T03:16:27Z</time>
            </trkpt>
            <trkpt lon="99.679591" lat="12.907987">
                <ele>109.730000</ele>
                <time>2016-01-24T03:19:16Z</time>
            </trkpt>
            <trkpt lon="99.679097" lat="12.907857">
                <ele>107.810000</ele>
                <time>2016-01-24T03:19:26Z</time>
            </trkpt>
            <trkpt lon="99.678295" lat="12.907890">
                <ele>104.440000</ele>
                <time>2016-01-24T03:19:40Z</time>
            </trkpt>
            <trkpt lon="99.677231" lat="12.908077">
                <ele>101.080000</ele>
                <time>2016-01-24T03:19:58Z</time>
            </trkpt>
            <trkpt lon="99.672564" lat="12.909583">
                <ele>86.180000</ele>
                <time>2016-01-24T03:21:03Z</time>
            </trkpt>
            <trkpt lon="99.671903" lat="12.908537">
                <ele>93.870000</ele>
                <time>2016-01-24T03:21:41Z</time>
            </trkpt>
            <trkpt lon="99.671561" lat="12.908031">
                <ele>94.350000</ele>
                <time>2016-01-24T03:21:58Z</time>
            </trkpt>
            <trkpt lon="99.670872" lat="12.907509">
                <ele>95.790000</ele>
                <time>2016-01-24T03:22:18Z</time>
            </trkpt>
            <trkpt lon="99.669129" lat="12.906752">
                <ele>90.020000</ele>
                <time>2016-01-24T03:22:53Z</time>
            </trkpt>
            <trkpt lon="99.667507" lat="12.905415">
                <ele>81.370000</ele>
                <time>2016-01-24T03:23:27Z</time>
            </trkpt>
            <trkpt lon="99.666836" lat="12.904697">
                <ele>78.970000</ele>
                <time>2016-01-24T03:23:45Z</time>
            </trkpt>
            <trkpt lon="99.666297" lat="12.903861">
                <ele>78.000000</ele>
                <time>2016-01-24T03:24:02Z</time>
            </trkpt>
            <trkpt lon="99.665950" lat="12.902678">
                <ele>78.000000</ele>
                <time>2016-01-24T03:24:28Z</time>
            </trkpt>
            <trkpt lon="99.665953" lat="12.903065">
                <ele>78.480000</ele>
                <time>2016-01-24T03:24:58Z</time>
            </trkpt>
            <trkpt lon="99.665361" lat="12.903111">
                <ele>70.790000</ele>
                <time>2016-01-24T03:25:45Z</time>
            </trkpt>
            <trkpt lon="99.665033" lat="12.902485">
                <ele>68.870000</ele>
                <time>2016-01-24T03:26:08Z</time>
            </trkpt>
            <trkpt lon="99.664783" lat="12.901374">
                <ele>69.350000</ele>
                <time>2016-01-24T03:27:07Z</time>
            </trkpt>
            <trkpt lon="99.664924" lat="12.901328">
                <ele>73.200000</ele>
                <time>2016-01-24T03:27:48Z</time>
            </trkpt>
            <trkpt lon="99.665130" lat="12.901134">
                <ele>74.640000</ele>
                <time>2016-01-24T03:28:46Z</time>
            </trkpt>
            <trkpt lon="99.665200" lat="12.900840">
                <ele>78.000000</ele>
                <time>2016-01-24T03:29:03Z</time>
            </trkpt>
            <trkpt lon="99.665215" lat="12.900715">
                <ele>78.000000</ele>
                <time>2016-01-24T03:29:09Z</time>
            </trkpt>
            <trkpt lon="99.664957" lat="12.900388">
                <ele>76.560000</ele>
                <time>2016-01-24T03:29:22Z</time>
            </trkpt>
            <trkpt lon="99.665255" lat="12.897302">
                <ele>72.240000</ele>
                <time>2016-01-24T03:30:30Z</time>
            </trkpt>
            <trkpt lon="99.666357" lat="12.896475">
                <ele>71.270000</ele>
                <time>2016-01-24T03:33:16Z</time>
            </trkpt>
            <trkpt lon="99.665971" lat="12.895644">
                <ele>70.790000</ele>
                <time>2016-01-24T03:33:42Z</time>
            </trkpt>
            <trkpt lon="99.661351" lat="12.897820">
                <ele>65.510000</ele>
                <time>2016-01-24T03:36:09Z</time>
            </trkpt>
            <trkpt lon="99.661082" lat="12.898577">
                <ele>65.990000</ele>
                <time>2016-01-24T03:36:33Z</time>
            </trkpt>
            <trkpt lon="99.660743" lat="12.898721">
                <ele>66.950000</ele>
                <time>2016-01-24T03:36:45Z</time>
            </trkpt>
            <trkpt lon="99.658819" lat="12.898730">
                <ele>65.990000</ele>
                <time>2016-01-24T03:37:36Z</time>
            </trkpt>
            <trkpt lon="99.658219" lat="12.898949">
                <ele>70.310000</ele>
                <time>2016-01-24T03:37:58Z</time>
            </trkpt>
            <trkpt lon="99.658208" lat="12.898729">
                <ele>69.830000</ele>
                <time>2016-01-24T03:38:14Z</time>
            </trkpt>
            <trkpt lon="99.657971" lat="12.899064">
                <ele>70.790000</ele>
                <time>2016-01-24T03:38:36Z</time>
            </trkpt>
            <trkpt lon="99.656602" lat="12.899653">
                <ele>65.030000</ele>
                <time>2016-01-24T03:39:07Z</time>
            </trkpt>
            <trkpt lon="99.655646" lat="12.899764">
                <ele>71.760000</ele>
                <time>2016-01-24T03:42:22Z</time>
            </trkpt>
            <trkpt lon="99.655508" lat="12.899851">
                <ele>71.760000</ele>
                <time>2016-01-24T03:42:29Z</time>
            </trkpt>
            <trkpt lon="99.654562" lat="12.899943">
                <ele>70.310000</ele>
                <time>2016-01-24T03:42:56Z</time>
            </trkpt>
            <trkpt lon="99.654232" lat="12.900051">
                <ele>71.270000</ele>
                <time>2016-01-24T03:43:10Z</time>
            </trkpt>
            <trkpt lon="99.653841" lat="12.900374">
                <ele>73.200000</ele>
                <time>2016-01-24T03:43:49Z</time>
            </trkpt>
            <trkpt lon="99.653848" lat="12.900394">
                <ele>73.200000</ele>
                <time>2016-01-24T03:43:50Z</time>
            </trkpt>
            <trkpt lon="99.654026" lat="12.900911">
                <ele>67.910000</ele>
                <time>2016-01-24T03:44:04Z</time>
            </trkpt>
            <trkpt lon="99.652014" lat="12.901871">
                <ele>63.580000</ele>
                <time>2016-01-24T03:44:52Z</time>
            </trkpt>
            <trkpt lon="99.650892" lat="12.899925">
                <ele>64.070000</ele>
                <time>2016-01-24T03:45:54Z</time>
            </trkpt>
            <trkpt lon="99.650240" lat="12.900054">
                <ele>60.700000</ele>
                <time>2016-01-24T03:46:12Z</time>
            </trkpt>
            <trkpt lon="99.650058" lat="12.900488">
                <ele>59.740000</ele>
                <time>2016-01-24T03:46:26Z</time>
            </trkpt>
            <trkpt lon="99.649850" lat="12.900662">
                <ele>62.140000</ele>
                <time>2016-01-24T03:46:35Z</time>
            </trkpt>
            <trkpt lon="99.649622" lat="12.900957">
                <ele>62.620000</ele>
                <time>2016-01-24T03:46:46Z</time>
            </trkpt>
            <trkpt lon="99.649974" lat="12.901627">
                <ele>65.990000</ele>
                <time>2016-01-24T03:47:13Z</time>
            </trkpt>
            <trkpt lon="99.649944" lat="12.901960">
                <ele>61.180000</ele>
                <time>2016-01-24T03:47:27Z</time>
            </trkpt>
            <trkpt lon="99.649679" lat="12.902192">
                <ele>60.700000</ele>
                <time>2016-01-24T03:47:40Z</time>
            </trkpt>
            <trkpt lon="99.648876" lat="12.902112">
                <ele>71.760000</ele>
                <time>2016-01-24T03:48:03Z</time>
            </trkpt>
            <trkpt lon="99.648648" lat="12.902091">
                <ele>72.720000</ele>
                <time>2016-01-24T03:48:11Z</time>
            </trkpt>
            <trkpt lon="99.648321" lat="12.901015">
                <ele>76.560000</ele>
                <time>2016-01-24T03:48:47Z</time>
            </trkpt>
            <trkpt lon="99.648188" lat="12.900314">
                <ele>75.600000</ele>
                <time>2016-01-24T03:49:05Z</time>
            </trkpt>
            <trkpt lon="99.648164" lat="12.899904">
                <ele>70.790000</ele>
                <time>2016-01-24T03:49:12Z</time>
            </trkpt>
            <trkpt lon="99.648721" lat="12.898511">
                <ele>64.550000</ele>
                <time>2016-01-24T03:49:42Z</time>
            </trkpt>
            <trkpt lon="99.649155" lat="12.897900">
                <ele>64.070000</ele>
                <time>2016-01-24T03:49:58Z</time>
            </trkpt>
            <trkpt lon="99.649598" lat="12.897563">
                <ele>64.070000</ele>
                <time>2016-01-24T03:50:11Z</time>
            </trkpt>
            <trkpt lon="99.649337" lat="12.896942">
                <ele>63.100000</ele>
                <time>2016-01-24T03:50:38Z</time>
            </trkpt>
            <trkpt lon="99.649114" lat="12.896968">
                <ele>68.870000</ele>
                <time>2016-01-24T03:50:55Z</time>
            </trkpt>
            <trkpt lon="99.649099" lat="12.896971">
                <ele>68.870000</ele>
                <time>2016-01-24T03:50:56Z</time>
            </trkpt>
            <trkpt lon="99.648447" lat="12.897370">
                <ele>69.830000</ele>
                <time>2016-01-24T03:51:33Z</time>
            </trkpt>
            <trkpt lon="99.647652" lat="12.897645">
                <ele>67.910000</ele>
                <time>2016-01-24T03:51:55Z</time>
            </trkpt>
            <trkpt lon="99.646859" lat="12.898270">
                <ele>66.470000</ele>
                <time>2016-01-24T03:52:21Z</time>
            </trkpt>
            <trkpt lon="99.646453" lat="12.898413">
                <ele>66.470000</ele>
                <time>2016-01-24T03:52:32Z</time>
            </trkpt>
            <trkpt lon="99.646067" lat="12.898680">
                <ele>65.990000</ele>
                <time>2016-01-24T03:52:43Z</time>
            </trkpt>
            <trkpt lon="99.646043" lat="12.898734">
                <ele>65.510000</ele>
                <time>2016-01-24T03:53:04Z</time>
            </trkpt>
            <trkpt lon="99.646004" lat="12.898454">
                <ele>65.030000</ele>
                <time>2016-01-24T03:53:17Z</time>
            </trkpt>
            <trkpt lon="99.645659" lat="12.898120">
                <ele>63.580000</ele>
                <time>2016-01-24T03:53:29Z</time>
            </trkpt>
            <trkpt lon="99.645274" lat="12.898329">
                <ele>62.620000</ele>
                <time>2016-01-24T03:53:39Z</time>
            </trkpt>
            <trkpt lon="99.643714" lat="12.899833">
                <ele>67.910000</ele>
                <time>2016-01-24T03:54:40Z</time>
            </trkpt>
            <trkpt lon="99.643000" lat="12.901117">
                <ele>64.070000</ele>
                <time>2016-01-24T03:55:14Z</time>
            </trkpt>
            <trkpt lon="99.642237" lat="12.901608">
                <ele>68.390000</ele>
                <time>2016-01-24T03:55:44Z</time>
            </trkpt>
            <trkpt lon="99.641376" lat="12.903392">
                <ele>67.910000</ele>
                <time>2016-01-24T03:56:37Z</time>
            </trkpt>
            <trkpt lon="99.639905" lat="12.903295">
                <ele>83.290000</ele>
                <time>2016-01-24T03:57:39Z</time>
            </trkpt>
            <trkpt lon="99.639639" lat="12.903424">
                <ele>83.770000</ele>
                <time>2016-01-24T03:57:53Z</time>
            </trkpt>
            <trkpt lon="99.639013" lat="12.903398">
                <ele>87.140000</ele>
                <time>2016-01-24T03:58:34Z</time>
            </trkpt>
            <trkpt lon="99.638900" lat="12.903580">
                <ele>89.060000</ele>
                <time>2016-01-24T03:58:49Z</time>
            </trkpt>
            <trkpt lon="99.638590" lat="12.904088">
                <ele>85.690000</ele>
                <time>2016-01-24T03:59:17Z</time>
            </trkpt>
            <trkpt lon="99.638176" lat="12.904405">
                <ele>78.480000</ele>
                <time>2016-01-24T03:59:30Z</time>
            </trkpt>
            <trkpt lon="99.637020" lat="12.905206">
                <ele>75.120000</ele>
                <time>2016-01-24T04:00:01Z</time>
            </trkpt>
            <trkpt lon="99.636522" lat="12.905411">
                <ele>83.770000</ele>
                <time>2016-01-24T04:00:36Z</time>
            </trkpt>
            <trkpt lon="99.636458" lat="12.905378">
                <ele>83.770000</ele>
                <time>2016-01-24T04:01:30Z</time>
            </trkpt>
            <trkpt lon="99.636159" lat="12.906464">
                <ele>75.120000</ele>
                <time>2016-01-24T04:02:42Z</time>
            </trkpt>
            <trkpt lon="99.635650" lat="12.907400">
                <ele>80.410000</ele>
                <time>2016-01-24T04:03:27Z</time>
            </trkpt>
            <trkpt lon="99.635336" lat="12.907182">
                <ele>84.730000</ele>
                <time>2016-01-24T04:03:45Z</time>
            </trkpt>
            <trkpt lon="99.634617" lat="12.906581">
                <ele>85.690000</ele>
                <time>2016-01-24T04:04:18Z</time>
            </trkpt>
            <trkpt lon="99.634156" lat="12.906308">
                <ele>86.180000</ele>
                <time>2016-01-24T04:04:36Z</time>
            </trkpt>
            <trkpt lon="99.632663" lat="12.905698">
                <ele>86.180000</ele>
                <time>2016-01-24T04:05:12Z</time>
            </trkpt>
            <trkpt lon="99.632698" lat="12.904733">
                <ele>89.060000</ele>
                <time>2016-01-24T04:05:48Z</time>
            </trkpt>
            <trkpt lon="99.633114" lat="12.903654">
                <ele>100.600000</ele>
                <time>2016-01-24T04:06:55Z</time>
            </trkpt>
            <trkpt lon="99.632992" lat="12.903519">
                <ele>103.960000</ele>
                <time>2016-01-24T04:07:08Z</time>
            </trkpt>
            <trkpt lon="99.632653" lat="12.903561">
                <ele>110.690000</ele>
                <time>2016-01-24T04:07:30Z</time>
            </trkpt>
            <trkpt lon="99.631610" lat="12.905603">
                <ele>108.770000</ele>
                <time>2016-01-24T04:10:04Z</time>
            </trkpt>
            <trkpt lon="99.630874" lat="12.906156">
                <ele>115.980000</ele>
                <time>2016-01-24T04:10:30Z</time>
            </trkpt>
            <trkpt lon="99.630543" lat="12.906410">
                <ele>116.460000</ele>
                <time>2016-01-24T04:10:43Z</time>
            </trkpt>
            <trkpt lon="99.630136" lat="12.906466">
                <ele>115.010000</ele>
                <time>2016-01-24T04:10:55Z</time>
            </trkpt>
            <trkpt lon="99.629729" lat="12.906896">
                <ele>112.610000</ele>
                <time>2016-01-24T04:11:08Z</time>
            </trkpt>
            <trkpt lon="99.629279" lat="12.907658">
                <ele>110.690000</ele>
                <time>2016-01-24T04:11:28Z</time>
            </trkpt>
            <trkpt lon="99.629386" lat="12.908092">
                <ele>102.040000</ele>
                <time>2016-01-24T04:11:39Z</time>
            </trkpt>
            <trkpt lon="99.629296" lat="12.908885">
                <ele>102.520000</ele>
                <time>2016-01-24T04:11:54Z</time>
            </trkpt>
            <trkpt lon="99.628907" lat="12.909096">
                <ele>109.250000</ele>
                <time>2016-01-24T04:12:13Z</time>
            </trkpt>
            <trkpt lon="99.628658" lat="12.909429">
                <ele>113.570000</ele>
                <time>2016-01-24T04:12:30Z</time>
            </trkpt>
            <trkpt lon="99.628859" lat="12.909785">
                <ele>114.530000</ele>
                <time>2016-01-24T04:12:42Z</time>
            </trkpt>
            <trkpt lon="99.627875" lat="12.912514">
                <ele>112.610000</ele>
                <time>2016-01-24T04:13:48Z</time>
            </trkpt>
            <trkpt lon="99.626829" lat="12.912748">
                <ele>115.010000</ele>
                <time>2016-01-24T04:14:16Z</time>
            </trkpt>
            <trkpt lon="99.626520" lat="12.913163">
                <ele>122.710000</ele>
                <time>2016-01-24T04:14:30Z</time>
            </trkpt>
            <trkpt lon="99.626220" lat="12.913590">
                <ele>122.220000</ele>
                <time>2016-01-24T04:14:43Z</time>
            </trkpt>
            <trkpt lon="99.625906" lat="12.913819">
                <ele>119.340000</ele>
                <time>2016-01-24T04:14:53Z</time>
            </trkpt>
            <trkpt lon="99.625682" lat="12.914471">
                <ele>115.010000</ele>
                <time>2016-01-24T04:15:08Z</time>
            </trkpt>
            <trkpt lon="99.625692" lat="12.914524">
                <ele>114.530000</ele>
                <time>2016-01-24T04:15:09Z</time>
            </trkpt>
            <trkpt lon="99.625929" lat="12.915089">
                <ele>114.050000</ele>
                <time>2016-01-24T04:15:23Z</time>
            </trkpt>
            <trkpt lon="99.626409" lat="12.915123">
                <ele>118.380000</ele>
                <time>2016-01-24T04:15:54Z</time>
            </trkpt>
            <trkpt lon="99.626762" lat="12.915093">
                <ele>117.420000</ele>
                <time>2016-01-24T04:16:05Z</time>
            </trkpt>
            <trkpt lon="99.627757" lat="12.914103">
                <ele>106.360000</ele>
                <time>2016-01-24T04:16:33Z</time>
            </trkpt>
            <trkpt lon="99.628135" lat="12.914083">
                <ele>107.810000</ele>
                <time>2016-01-24T04:16:42Z</time>
            </trkpt>
            <trkpt lon="99.628881" lat="12.915210">
                <ele>111.170000</ele>
                <time>2016-01-24T04:17:09Z</time>
            </trkpt>
            <trkpt lon="99.631716" lat="12.919764">
                <ele>112.610000</ele>
                <time>2016-01-24T04:18:56Z</time>
            </trkpt>
            <trkpt lon="99.632168" lat="12.919995">
                <ele>111.650000</ele>
                <time>2016-01-24T04:19:09Z</time>
            </trkpt>
            <trkpt lon="99.632988" lat="12.920141">
                <ele>102.520000</ele>
                <time>2016-01-24T04:19:22Z</time>
            </trkpt>
            <trkpt lon="99.633856" lat="12.920170">
                <ele>88.580000</ele>
                <time>2016-01-24T04:19:33Z</time>
            </trkpt>
            <trkpt lon="99.634356" lat="12.919887">
                <ele>79.450000</ele>
                <time>2016-01-24T04:19:42Z</time>
            </trkpt>
            <trkpt lon="99.634430" lat="12.919852">
                <ele>75.600000</ele>
                <time>2016-01-24T04:20:09Z</time>
            </trkpt>
            <trkpt lon="99.634444" lat="12.919723">
                <ele>77.040000</ele>
                <time>2016-01-24T04:20:31Z</time>
            </trkpt>
            <trkpt lon="99.634780" lat="12.918054">
                <ele>71.270000</ele>
                <time>2016-01-24T04:21:02Z</time>
            </trkpt>
            <trkpt lon="99.634954" lat="12.917720">
                <ele>71.270000</ele>
                <time>2016-01-24T04:21:09Z</time>
            </trkpt>
            <trkpt lon="99.636965" lat="12.915244">
                <ele>67.910000</ele>
                <time>2016-01-24T04:22:05Z</time>
            </trkpt>
            <trkpt lon="99.638633" lat="12.914564">
                <ele>76.560000</ele>
                <time>2016-01-24T04:23:02Z</time>
            </trkpt>
            <trkpt lon="99.639100" lat="12.914298">
                <ele>76.560000</ele>
                <time>2016-01-24T04:23:22Z</time>
            </trkpt>
            <trkpt lon="99.640140" lat="12.913528">
                <ele>68.870000</ele>
                <time>2016-01-24T04:23:44Z</time>
            </trkpt>
            <trkpt lon="99.641694" lat="12.911030">
                <ele>67.910000</ele>
                <time>2016-01-24T04:24:36Z</time>
            </trkpt>
            <trkpt lon="99.642269" lat="12.910362">
                <ele>66.950000</ele>
                <time>2016-01-24T04:24:53Z</time>
            </trkpt>
            <trkpt lon="99.644530" lat="12.908678">
                <ele>71.270000</ele>
                <time>2016-01-24T04:25:55Z</time>
            </trkpt>
            <trkpt lon="99.646893" lat="12.907122">
                <ele>70.790000</ele>
                <time>2016-01-24T04:26:57Z</time>
            </trkpt>
            <trkpt lon="99.648109" lat="12.906544">
                <ele>70.310000</ele>
                <time>2016-01-24T04:27:25Z</time>
            </trkpt>
            <trkpt lon="99.648938" lat="12.906447">
                <ele>70.310000</ele>
                <time>2016-01-24T04:27:43Z</time>
            </trkpt>
            <trkpt lon="99.649105" lat="12.906313">
                <ele>78.970000</ele>
                <time>2016-01-24T04:33:56Z</time>
            </trkpt>
            <trkpt lon="99.649519" lat="12.906502">
                <ele>69.830000</ele>
                <time>2016-01-24T04:41:24Z</time>
            </trkpt>
            <trkpt lon="99.651139" lat="12.906573">
                <ele>66.950000</ele>
                <time>2016-01-24T04:41:58Z</time>
            </trkpt>
            <trkpt lon="99.651895" lat="12.907189">
                <ele>67.430000</ele>
                <time>2016-01-24T04:42:18Z</time>
            </trkpt>
            <trkpt lon="99.652031" lat="12.907356">
                <ele>67.430000</ele>
                <time>2016-01-24T04:42:23Z</time>
            </trkpt>
            <trkpt lon="99.651573" lat="12.908461">
                <ele>84.250000</ele>
                <time>2016-01-24T04:43:34Z</time>
            </trkpt>
            <trkpt lon="99.651323" lat="12.909164">
                <ele>88.580000</ele>
                <time>2016-01-24T04:44:23Z</time>
            </trkpt>
            <trkpt lon="99.650879" lat="12.910433">
                <ele>82.810000</ele>
                <time>2016-01-24T04:45:14Z</time>
            </trkpt>
            <trkpt lon="99.651141" lat="12.911084">
                <ele>78.480000</ele>
                <time>2016-01-24T04:45:27Z</time>
            </trkpt>
            <trkpt lon="99.650908" lat="12.912272">
                <ele>79.930000</ele>
                <time>2016-01-24T04:45:52Z</time>
            </trkpt>
            <trkpt lon="99.650890" lat="12.913003">
                <ele>79.930000</ele>
                <time>2016-01-24T04:46:10Z</time>
            </trkpt>
            <trkpt lon="99.650910" lat="12.913888">
                <ele>76.560000</ele>
                <time>2016-01-24T04:46:31Z</time>
            </trkpt>
            <trkpt lon="99.652097" lat="12.913920">
                <ele>70.310000</ele>
                <time>2016-01-24T04:47:00Z</time>
            </trkpt>
            <trkpt lon="99.652626" lat="12.913889">
                <ele>66.950000</ele>
                <time>2016-01-24T04:47:10Z</time>
            </trkpt>
            <trkpt lon="99.653333" lat="12.914264">
                <ele>68.870000</ele>
                <time>2016-01-24T04:47:28Z</time>
            </trkpt>
            <trkpt lon="99.654100" lat="12.914017">
                <ele>70.310000</ele>
                <time>2016-01-24T04:48:01Z</time>
            </trkpt>
            <trkpt lon="99.654315" lat="12.913800">
                <ele>71.270000</ele>
                <time>2016-01-24T04:48:18Z</time>
            </trkpt>
            <trkpt lon="99.654415" lat="12.913739">
                <ele>69.830000</ele>
                <time>2016-01-24T04:48:23Z</time>
            </trkpt>
            <trkpt lon="99.655934" lat="12.913678">
                <ele>73.200000</ele>
                <time>2016-01-24T04:49:16Z</time>
            </trkpt>
            <trkpt lon="99.656236" lat="12.913751">
                <ele>72.240000</ele>
                <time>2016-01-24T04:49:26Z</time>
            </trkpt>
            <trkpt lon="99.657025" lat="12.914153">
                <ele>70.790000</ele>
                <time>2016-01-24T04:49:50Z</time>
            </trkpt>
            <trkpt lon="99.657278" lat="12.914519">
                <ele>70.790000</ele>
                <time>2016-01-24T04:50:02Z</time>
            </trkpt>
            <trkpt lon="99.657449" lat="12.915769">
                <ele>76.560000</ele>
                <time>2016-01-24T04:50:53Z</time>
            </trkpt>
            <trkpt lon="99.658627" lat="12.915610">
                <ele>73.680000</ele>
                <time>2016-01-24T04:51:32Z</time>
            </trkpt>
            <trkpt lon="99.658599" lat="12.914194">
                <ele>70.310000</ele>
                <time>2016-01-24T04:52:07Z</time>
            </trkpt>
            <trkpt lon="99.659417" lat="12.914070">
                <ele>70.790000</ele>
                <time>2016-01-24T04:52:30Z</time>
            </trkpt>
            <trkpt lon="99.660853" lat="12.914389">
                <ele>75.600000</ele>
                <time>2016-01-24T04:53:19Z</time>
            </trkpt>
            <trkpt lon="99.661103" lat="12.914686">
                <ele>76.560000</ele>
                <time>2016-01-24T04:53:35Z</time>
            </trkpt>
            <trkpt lon="99.661008" lat="12.915917">
                <ele>80.410000</ele>
                <time>2016-01-24T04:54:23Z</time>
            </trkpt>
            <trkpt lon="99.661396" lat="12.916455">
                <ele>81.850000</ele>
                <time>2016-01-24T04:54:48Z</time>
            </trkpt>
            <trkpt lon="99.661429" lat="12.916804">
                <ele>83.770000</ele>
                <time>2016-01-24T04:55:02Z</time>
            </trkpt>
            <trkpt lon="99.661449" lat="12.917137">
                <ele>83.770000</ele>
                <time>2016-01-24T04:55:13Z</time>
            </trkpt>
            <trkpt lon="99.661359" lat="12.917507">
                <ele>84.730000</ele>
                <time>2016-01-24T04:55:26Z</time>
            </trkpt>
            <trkpt lon="99.661463" lat="12.917908">
                <ele>89.540000</ele>
                <time>2016-01-24T04:55:54Z</time>
            </trkpt>
            <trkpt lon="99.661489" lat="12.918767">
                <ele>93.870000</ele>
                <time>2016-01-24T04:56:43Z</time>
            </trkpt>
            <trkpt lon="99.661506" lat="12.919892">
                <ele>96.270000</ele>
                <time>2016-01-24T04:57:33Z</time>
            </trkpt>
            <trkpt lon="99.661493" lat="12.920052">
                <ele>96.750000</ele>
                <time>2016-01-24T04:57:39Z</time>
            </trkpt>
            <trkpt lon="99.661182" lat="12.920285">
                <ele>99.150000</ele>
                <time>2016-01-24T04:58:00Z</time>
            </trkpt>
            <trkpt lon="99.661167" lat="12.920294">
                <ele>99.150000</ele>
                <time>2016-01-24T04:58:01Z</time>
            </trkpt>
            <trkpt lon="99.661290" lat="12.920764">
                <ele>103.000000</ele>
                <time>2016-01-24T04:58:35Z</time>
            </trkpt>
            <trkpt lon="99.662116" lat="12.920817">
                <ele>98.190000</ele>
                <time>2016-01-24T04:59:00Z</time>
            </trkpt>
            <trkpt lon="99.662187" lat="12.920973">
                <ele>97.230000</ele>
                <time>2016-01-24T04:59:06Z</time>
            </trkpt>
            <trkpt lon="99.661821" lat="12.923307">
                <ele>110.210000</ele>
                <time>2016-01-24T05:00:53Z</time>
            </trkpt>
            <trkpt lon="99.661467" lat="12.923688">
                <ele>115.010000</ele>
                <time>2016-01-24T05:01:27Z</time>
            </trkpt>
            <trkpt lon="99.661133" lat="12.923825">
                <ele>117.900000</ele>
                <time>2016-01-24T05:01:48Z</time>
            </trkpt>
            <trkpt lon="99.660442" lat="12.924110">
                <ele>121.260000</ele>
                <time>2016-01-24T05:02:34Z</time>
            </trkpt>
            <trkpt lon="99.660196" lat="12.924335">
                <ele>126.550000</ele>
                <time>2016-01-24T05:02:57Z</time>
            </trkpt>
            <trkpt lon="99.660339" lat="12.924449">
                <ele>127.030000</ele>
                <time>2016-01-24T05:03:11Z</time>
            </trkpt>
            <trkpt lon="99.660487" lat="12.925299">
                <ele>126.070000</ele>
                <time>2016-01-24T05:03:49Z</time>
            </trkpt>
            <trkpt lon="99.661044" lat="12.925711">
                <ele>127.510000</ele>
                <time>2016-01-24T05:04:16Z</time>
            </trkpt>
            <trkpt lon="99.661303" lat="12.925775">
                <ele>127.510000</ele>
                <time>2016-01-24T05:04:29Z</time>
            </trkpt>
            <trkpt lon="99.661927" lat="12.925600">
                <ele>120.780000</ele>
                <time>2016-01-24T05:04:52Z</time>
            </trkpt>
            <trkpt lon="99.662052" lat="12.924801">
                <ele>115.500000</ele>
                <time>2016-01-24T05:05:09Z</time>
            </trkpt>
            <trkpt lon="99.662920" lat="12.923747">
                <ele>103.480000</ele>
                <time>2016-01-24T05:05:27Z</time>
            </trkpt>
            <trkpt lon="99.663566" lat="12.922078">
                <ele>97.230000</ele>
                <time>2016-01-24T05:05:53Z</time>
            </trkpt>
            <trkpt lon="99.663487" lat="12.921240">
                <ele>93.870000</ele>
                <time>2016-01-24T05:06:05Z</time>
            </trkpt>
            <trkpt lon="99.663807" lat="12.920316">
                <ele>90.980000</ele>
                <time>2016-01-24T05:06:18Z</time>
            </trkpt>
            <trkpt lon="99.664466" lat="12.919449">
                <ele>90.020000</ele>
                <time>2016-01-24T05:06:36Z</time>
            </trkpt>
            <trkpt lon="99.664527" lat="12.919330">
                <ele>89.060000</ele>
                <time>2016-01-24T05:06:40Z</time>
            </trkpt>
            <trkpt lon="99.666276" lat="12.919563">
                <ele>98.190000</ele>
                <time>2016-01-24T05:07:56Z</time>
            </trkpt>
            <trkpt lon="99.666842" lat="12.919663">
                <ele>95.790000</ele>
                <time>2016-01-24T05:08:16Z</time>
            </trkpt>
            <trkpt lon="99.667413" lat="12.920360">
                <ele>100.600000</ele>
                <time>2016-01-24T05:09:18Z</time>
            </trkpt>
            <trkpt lon="99.667668" lat="12.920298">
                <ele>101.560000</ele>
                <time>2016-01-24T05:09:31Z</time>
            </trkpt>
            <trkpt lon="99.667972" lat="12.920256">
                <ele>101.560000</ele>
                <time>2016-01-24T05:09:43Z</time>
            </trkpt>
            <trkpt lon="99.668239" lat="12.921043">
                <ele>110.690000</ele>
                <time>2016-01-24T05:10:37Z</time>
            </trkpt>
            <trkpt lon="99.668873" lat="12.920759">
                <ele>108.770000</ele>
                <time>2016-01-24T05:11:06Z</time>
            </trkpt>
            <trkpt lon="99.669689" lat="12.920711">
                <ele>111.650000</ele>
                <time>2016-01-24T05:11:47Z</time>
            </trkpt>
            <trkpt lon="99.670004" lat="12.920399">
                <ele>112.610000</ele>
                <time>2016-01-24T05:12:08Z</time>
            </trkpt>
            <trkpt lon="99.669807" lat="12.919095">
                <ele>108.290000</ele>
                <time>2016-01-24T05:12:54Z</time>
            </trkpt>
            <trkpt lon="99.669180" lat="12.917976">
                <ele>99.630000</ele>
                <time>2016-01-24T05:13:30Z</time>
            </trkpt>
            <trkpt lon="99.669125" lat="12.917470">
                <ele>97.710000</ele>
                <time>2016-01-24T05:13:43Z</time>
            </trkpt>
            <trkpt lon="99.669103" lat="12.912842">
                <ele>80.410000</ele>
                <time>2016-01-24T05:15:24Z</time>
            </trkpt>
            <trkpt lon="99.669263" lat="12.911552">
                <ele>78.480000</ele>
                <time>2016-01-24T05:15:58Z</time>
            </trkpt>
            <trkpt lon="99.670362" lat="12.911565">
                <ele>80.410000</ele>
                <time>2016-01-24T05:16:36Z</time>
            </trkpt>
            <trkpt lon="99.671271" lat="12.911212">
                <ele>85.210000</ele>
                <time>2016-01-24T05:17:11Z</time>
            </trkpt>
            <trkpt lon="99.671670" lat="12.910907">
                <ele>87.140000</ele>
                <time>2016-01-24T05:17:28Z</time>
            </trkpt>
            <trkpt lon="99.672367" lat="12.909938">
                <ele>86.660000</ele>
                <time>2016-01-24T05:18:02Z</time>
            </trkpt>
            <trkpt lon="99.673052" lat="12.909503">
                <ele>84.250000</ele>
                <time>2016-01-24T05:18:17Z</time>
            </trkpt>
            <trkpt lon="99.677227" lat="12.908137">
                <ele>97.230000</ele>
                <time>2016-01-24T05:20:05Z</time>
            </trkpt>
            <trkpt lon="99.678882" lat="12.907924">
                <ele>104.440000</ele>
                <time>2016-01-24T05:20:59Z</time>
            </trkpt>
            <trkpt lon="99.680316" lat="12.908383">
                <ele>115.010000</ele>
                <time>2016-01-24T05:21:51Z</time>
            </trkpt>
            <trkpt lon="99.681157" lat="12.908806">
                <ele>117.900000</ele>
                <time>2016-01-24T05:22:27Z</time>
            </trkpt>
            <trkpt lon="99.681404" lat="12.908658">
                <ele>118.860000</ele>
                <time>2016-01-24T05:22:37Z</time>
            </trkpt>
            <trkpt lon="99.681841" lat="12.908041">
                <ele>119.340000</ele>
                <time>2016-01-24T05:22:55Z</time>
            </trkpt>
            <trkpt lon="99.683085" lat="12.907486">
                <ele>108.770000</ele>
                <time>2016-01-24T05:23:14Z</time>
            </trkpt>
            <trkpt lon="99.683318" lat="12.907274">
                <ele>107.320000</ele>
                <time>2016-01-24T05:23:18Z</time>
            </trkpt>
            <trkpt lon="99.683706" lat="12.906523">
                <ele>106.360000</ele>
                <time>2016-01-24T05:23:31Z</time>
            </trkpt>
            <trkpt lon="99.683661" lat="12.905632">
                <ele>106.360000</ele>
                <time>2016-01-24T05:23:46Z</time>
            </trkpt>
            <trkpt lon="99.683080" lat="12.904647">
                <ele>106.840000</ele>
                <time>2016-01-24T05:24:08Z</time>
            </trkpt>
            <trkpt lon="99.682791" lat="12.904604">
                <ele>106.360000</ele>
                <time>2016-01-24T05:24:20Z</time>
            </trkpt>
            <trkpt lon="99.682644" lat="12.904266">
                <ele>107.810000</ele>
                <time>2016-01-24T05:24:34Z</time>
            </trkpt>
            <trkpt lon="99.682594" lat="12.904206">
                <ele>107.810000</ele>
                <time>2016-01-24T05:24:37Z</time>
            </trkpt>
            <trkpt lon="99.682267" lat="12.904217">
                <ele>105.880000</ele>
                <time>2016-01-24T05:24:46Z</time>
            </trkpt>
            <trkpt lon="99.682047" lat="12.904047">
                <ele>104.440000</ele>
                <time>2016-01-24T05:24:56Z</time>
            </trkpt>
            <trkpt lon="99.682291" lat="12.903502">
                <ele>104.920000</ele>
                <time>2016-01-24T05:25:21Z</time>
            </trkpt>
            <trkpt lon="99.682278" lat="12.903075">
                <ele>105.400000</ele>
                <time>2016-01-24T05:25:47Z</time>
            </trkpt>
            <trkpt lon="99.682093" lat="12.902744">
                <ele>105.880000</ele>
                <time>2016-01-24T05:26:02Z</time>
            </trkpt>
            <trkpt lon="99.681685" lat="12.902523">
                <ele>106.840000</ele>
                <time>2016-01-24T05:26:26Z</time>
            </trkpt>
            <trkpt lon="99.681695" lat="12.902499">
                <ele>106.840000</ele>
                <time>2016-01-24T05:26:30Z</time>
            </trkpt>
            <trkpt lon="99.681989" lat="12.902593">
                <ele>106.360000</ele>
                <time>2016-01-24T05:26:42Z</time>
            </trkpt>
            <trkpt lon="99.682244" lat="12.902850">
                <ele>105.880000</ele>
                <time>2016-01-24T05:26:54Z</time>
            </trkpt>
            <trkpt lon="99.682354" lat="12.903266">
                <ele>106.360000</ele>
                <time>2016-01-24T05:27:11Z</time>
            </trkpt>
            <trkpt lon="99.682174" lat="12.903343">
                <ele>104.920000</ele>
                <time>2016-01-24T05:28:35Z</time>
            </trkpt>
            <trkpt lon="99.681818" lat="12.903930">
                <ele>105.880000</ele>
                <time>2016-01-24T05:30:15Z</time>
            </trkpt>
        </trkseg>
    </trk>
</gpx>